createdAt,value
2019-02-09T00:00:50.616Z,73.40
2019-02-09T00:01:50.654Z,73.81
2019-02-09T00:02:50.582Z,73.06
2019-02-09T00:03:50.582Z,73.71
2019-02-09T00:04:50.576Z,73.47
2019-02-09T00:05:50.552Z,73.19
2019-02-09T00:06:50.548Z,73.50
2019-02-09T00:07:50.536Z,72.99
2019-02-09T00:08:50.517Z,73.88
2019-02-09T00:09:50.531Z,73.50
2019-02-09T00:10:50.494Z,73.81
2019-02-09T00:11:50.501Z,73.40
2019-02-09T00:12:50.482Z,73.61
2019-02-09T00:13:50.468Z,73.81
2019-02-09T00:14:50.449Z,73.61
2019-02-09T00:15:50.450Z,73.91
2019-02-09T00:16:50.423Z,73.40
2019-02-09T00:17:50.422Z,74.12
2019-02-09T00:18:50.422Z,73.40
2019-02-09T00:19:50.420Z,73.78
2019-02-09T00:20:50.397Z,74.12
2019-02-09T00:21:50.372Z,73.91
2019-02-09T00:22:50.367Z,73.50
2019-02-09T00:23:50.370Z,73.50
2019-02-09T00:24:50.351Z,73.81
2019-02-09T00:25:50.332Z,73.98
2019-02-09T00:26:50.332Z,74.53
2019-02-09T00:27:50.305Z,74.33
2019-02-09T00:28:50.292Z,74.53
2019-02-09T00:29:50.288Z,73.81
2019-02-09T00:30:50.293Z,73.61
2019-02-09T00:31:50.280Z,74.43
2019-02-09T00:32:50.271Z,74.43
2019-02-09T00:33:50.245Z,74.33
2019-02-09T00:34:50.237Z,74.84
2019-02-09T00:35:50.228Z,75.25
2019-02-09T00:36:50.233Z,74.63
2019-02-09T00:37:50.201Z,75.04
2019-02-09T00:38:50.186Z,74.12
2019-02-09T00:39:50.175Z,75.25
2019-02-09T00:40:50.177Z,74.74
2019-02-09T00:41:50.175Z,74.74
2019-02-09T00:42:50.177Z,74.84
2019-02-09T00:43:50.158Z,74.74
2019-02-09T00:44:50.137Z,75.04
2019-02-09T00:45:50.143Z,74.95
2019-02-09T00:46:50.101Z,74.74
2019-02-09T00:47:50.084Z,74.84
2019-02-09T00:48:50.078Z,74.95
2019-02-09T00:49:50.093Z,74.95
2019-02-09T00:50:50.063Z,75.08
2019-02-09T00:51:50.072Z,75.56
2019-02-09T00:52:50.035Z,75.35
2019-02-09T00:53:50.023Z,74.84
2019-02-09T00:54:50.051Z,75.46
2019-02-09T00:55:50.026Z,75.46
2019-02-09T00:56:50.011Z,75.25
2019-02-09T00:57:49.982Z,75.46
2019-02-09T00:58:49.998Z,76.62
2019-02-09T00:59:54.277Z,75.80
2019-02-09T01:00:49.954Z,76.62
2019-02-09T01:01:49.936Z,75.39
2019-02-09T01:02:49.932Z,76.01
2019-02-09T01:03:49.953Z,76.62
2019-02-09T01:04:49.918Z,76.31
2019-02-09T01:05:49.909Z,76.73
2019-02-09T01:06:49.891Z,76.73
2019-02-09T01:07:49.868Z,76.83
2019-02-09T01:08:49.877Z,75.70
2019-02-09T01:09:49.855Z,76.73
2019-02-09T01:10:49.850Z,75.80
2019-02-09T01:11:49.832Z,76.21
2019-02-09T01:12:49.817Z,76.35
2019-02-09T01:13:49.815Z,76.04
2019-02-09T01:14:49.839Z,76.52
2019-02-09T01:15:49.794Z,76.45
2019-02-09T01:16:49.803Z,76.45
2019-02-09T01:17:49.773Z,76.66
2019-02-09T01:18:49.758Z,76.04
2019-02-09T01:19:49.737Z,76.56
2019-02-09T01:20:49.737Z,76.45
2019-02-09T01:21:49.746Z,76.66
2019-02-09T01:22:49.713Z,76.35
2019-02-09T01:23:49.705Z,76.56
2019-02-09T01:24:49.708Z,76.66
2019-02-09T01:25:49.684Z,76.86
2019-02-09T01:26:49.698Z,76.45
2019-02-09T01:27:49.683Z,76.35
2019-02-09T01:28:49.675Z,76.76
2019-02-09T01:29:49.665Z,76.42
2019-02-09T01:30:49.632Z,76.56
2019-02-09T01:31:49.614Z,76.97
2019-02-09T01:32:49.616Z,76.76
2019-02-09T01:33:49.589Z,76.66
2019-02-09T01:34:49.602Z,77.17
2019-02-09T01:35:49.590Z,77.07
2019-02-09T01:36:49.564Z,76.66
2019-02-09T01:37:49.614Z,76.56
2019-02-09T01:38:49.547Z,77.38
2019-02-09T01:39:49.529Z,76.56
2019-02-09T01:40:49.537Z,76.45
2019-02-09T01:41:49.502Z,77.48
2019-02-09T01:42:49.511Z,77.28
2019-02-09T01:43:49.478Z,76.86
2019-02-09T01:44:49.469Z,77.58
2019-02-09T01:45:49.482Z,77.58
2019-02-09T01:46:49.463Z,77.48
2019-02-09T01:47:49.451Z,77.48
2019-02-09T01:48:49.430Z,77.17
2019-02-09T01:49:49.476Z,76.76
2019-02-09T01:50:49.426Z,77.38
2019-02-09T01:51:49.388Z,77.38
2019-02-09T01:52:49.378Z,76.56
2019-02-09T01:53:49.374Z,76.97
2019-02-09T01:54:49.367Z,77.17
2019-02-09T01:55:49.371Z,77.48
2019-02-09T01:56:49.339Z,77.38
2019-02-09T01:57:49.328Z,77.48
2019-02-09T01:58:49.321Z,77.48
2019-02-09T01:59:49.323Z,78.30
2019-02-09T02:00:49.299Z,78.10
2019-02-09T02:01:49.309Z,78.20
2019-02-09T02:02:49.308Z,78.10
2019-02-09T02:03:49.264Z,78.10
2019-02-09T02:04:49.294Z,78.10
2019-02-09T02:05:49.278Z,78.00
2019-02-09T02:06:49.235Z,78.20
2019-02-09T02:07:49.253Z,78.20
2019-02-09T02:08:49.216Z,78.27
2019-02-09T02:09:49.212Z,78.41
2019-02-09T02:10:49.190Z,78.06
2019-02-09T02:11:49.219Z,78.37
2019-02-09T02:12:49.170Z,78.27
2019-02-09T02:13:49.175Z,78.27
2019-02-09T02:14:49.149Z,78.68
2019-02-09T02:15:49.149Z,78.68
2019-02-09T02:16:49.135Z,78.58
2019-02-09T02:17:49.142Z,78.68
2019-02-09T02:18:49.133Z,78.99
2019-02-09T02:19:49.098Z,78.89
2019-02-09T02:20:49.091Z,78.99
2019-02-09T02:21:49.108Z,79.30
2019-02-09T02:22:49.057Z,79.40
2019-02-09T02:23:49.050Z,79.54
2019-02-09T02:24:49.038Z,79.61
2019-02-09T02:25:49.024Z,79.40
2019-02-09T02:26:49.074Z,79.50
2019-02-09T02:27:49.021Z,79.81
2019-02-09T02:28:49.058Z,79.44
2019-02-09T02:29:48.988Z,79.50
2019-02-09T02:30:48.974Z,80.22
2019-02-09T02:31:48.965Z,80.02
2019-02-09T02:32:48.979Z,79.91
2019-02-09T02:33:48.965Z,80.74
2019-02-09T02:34:48.951Z,80.33
2019-02-09T02:35:48.937Z,80.22
2019-02-09T02:36:48.906Z,80.63
2019-02-09T02:37:48.912Z,80.33
2019-02-09T02:38:48.903Z,80.33
2019-02-09T02:39:48.894Z,80.33
2019-02-09T02:40:48.888Z,80.43
2019-02-09T02:41:48.857Z,80.33
2019-02-09T02:42:48.867Z,80.33
2019-02-09T02:43:48.829Z,80.63
2019-02-09T02:44:48.830Z,80.53
2019-02-09T02:45:48.823Z,81.25
2019-02-09T02:46:48.811Z,81.15
2019-02-09T02:47:48.783Z,80.47
2019-02-09T02:48:48.784Z,81.35
2019-02-09T02:49:48.796Z,81.70
2019-02-09T02:50:48.785Z,81.46
2019-02-09T02:51:48.797Z,82.11
2019-02-09T02:52:48.750Z,82.69
2019-02-09T02:53:48.737Z,83.83
2019-02-09T02:54:48.731Z,83.55
2019-02-09T02:55:48.703Z,83.65
2019-02-09T02:56:48.750Z,84.38
2019-02-09T02:57:48.698Z,84.99
2019-02-09T02:58:48.683Z,85.41
2019-02-09T02:59:48.666Z,85.71
2019-02-09T03:00:48.645Z,85.82
2019-02-09T03:01:48.638Z,86.54
2019-02-09T03:02:48.656Z,87.46
2019-02-09T03:03:48.619Z,87.81
2019-02-09T03:04:48.617Z,88.95
2019-02-09T03:05:48.598Z,89.05
2019-02-09T03:06:48.592Z,89.67
2019-02-09T03:07:48.604Z,89.61
2019-02-09T03:08:48.591Z,89.61
2019-02-09T03:09:48.570Z,90.01
2019-02-09T03:10:48.555Z,90.64
2019-02-09T03:11:48.533Z,90.73
2019-02-09T03:12:48.555Z,90.67
2019-02-09T03:13:48.567Z,90.47
2019-02-09T03:14:48.550Z,89.61
2019-02-09T03:15:48.514Z,89.95
2019-02-09T03:16:48.514Z,88.92
2019-02-09T03:17:48.468Z,87.99
2019-02-09T03:18:48.544Z,88.20
2019-02-09T03:19:48.445Z,88.41
2019-02-09T03:20:48.442Z,88.62
2019-02-09T03:21:48.425Z,87.90
2019-02-09T03:22:48.411Z,87.90
2019-02-09T03:23:48.411Z,87.79
2019-02-09T03:24:48.414Z,87.48
2019-02-09T03:25:48.395Z,86.90
2019-02-09T03:26:48.378Z,87.01
2019-02-09T03:27:48.355Z,86.70
2019-02-09T03:28:48.338Z,86.70
2019-02-09T03:29:48.341Z,86.39
2019-02-09T03:30:49.195Z,86.49
2019-02-09T03:31:48.350Z,85.36
2019-02-09T03:32:48.307Z,86.08
2019-02-09T03:33:48.292Z,86.49
2019-02-09T03:34:48.295Z,86.29
2019-02-09T03:35:48.297Z,86.43
2019-02-09T03:36:48.288Z,86.12
2019-02-09T03:37:48.258Z,86.53
2019-02-09T03:38:48.250Z,86.53
2019-02-09T03:39:48.232Z,86.53
2019-02-09T03:40:48.226Z,86.02
2019-02-09T03:41:48.205Z,86.22
2019-02-09T03:42:48.275Z,86.53
2019-02-09T03:43:48.185Z,85.50
2019-02-09T03:44:48.178Z,86.43
2019-02-09T03:45:48.193Z,86.43
2019-02-09T03:46:48.210Z,86.12
2019-02-09T03:47:48.145Z,86.63
2019-02-09T03:48:48.132Z,86.63
2019-02-09T03:49:48.125Z,86.63
2019-02-09T03:50:48.130Z,86.43
2019-02-09T03:51:48.098Z,86.57
2019-02-09T03:52:48.142Z,86.22
2019-02-09T03:53:48.088Z,86.63
2019-02-09T03:54:48.064Z,86.43
2019-02-09T03:55:48.053Z,86.47
2019-02-09T03:56:48.057Z,86.32
2019-02-09T03:57:48.038Z,86.63
2019-02-09T03:58:48.038Z,86.57
2019-02-09T03:59:48.050Z,86.43
2019-02-09T04:00:55.175Z,86.94
2019-02-09T04:01:48.996Z,87.15
2019-02-09T04:02:47.975Z,87.46
2019-02-09T04:03:47.984Z,87.05
2019-02-09T04:04:47.976Z,87.26
2019-02-09T04:05:47.948Z,87.15
2019-02-09T04:06:47.972Z,87.05
2019-02-09T04:07:47.976Z,87.05
2019-02-09T04:08:47.970Z,88.08
2019-02-09T04:09:47.901Z,87.60
2019-02-09T04:10:47.911Z,87.92
2019-02-09T04:11:47.908Z,88.02
2019-02-09T04:12:47.879Z,88.02
2019-02-09T04:13:47.858Z,87.81
2019-02-09T04:14:47.846Z,88.32
2019-02-09T04:15:47.849Z,87.81
2019-02-09T04:16:47.844Z,88.64
2019-02-09T04:17:47.819Z,87.92
2019-02-09T04:18:47.812Z,87.81
2019-02-09T04:19:47.789Z,88.02
2019-02-09T04:20:47.790Z,88.53
2019-02-09T04:21:47.842Z,88.53
2019-02-09T04:22:47.775Z,88.53
2019-02-09T04:23:47.771Z,88.74
2019-02-09T04:24:47.777Z,88.32
2019-02-09T04:25:47.735Z,88.53
2019-02-09T04:26:47.723Z,88.32
2019-02-09T04:27:47.708Z,88.74
2019-02-09T04:28:47.706Z,88.64
2019-02-09T04:29:47.740Z,88.68
2019-02-09T04:30:47.684Z,88.89
2019-02-09T04:31:47.663Z,89.56
2019-02-09T04:32:47.688Z,89.56
2019-02-09T04:33:47.650Z,90.08
2019-02-09T04:34:47.652Z,90.19
2019-02-09T04:35:47.674Z,89.25
2019-02-09T04:36:47.629Z,90.08
2019-02-09T04:37:47.605Z,89.25
2019-02-09T04:38:47.586Z,88.64
2019-02-09T04:39:47.591Z,89.36
2019-02-09T04:40:47.578Z,88.74
2019-02-09T04:41:47.570Z,89.36
2019-02-09T04:42:47.540Z,88.74
2019-02-09T04:43:47.575Z,89.25
2019-02-09T04:44:47.553Z,89.05
2019-02-09T04:45:47.529Z,89.98
2019-02-09T04:46:47.501Z,90.08
2019-02-09T04:47:47.527Z,89.01
2019-02-09T04:48:47.483Z,89.94
2019-02-09T04:49:47.465Z,89.67
2019-02-09T04:50:47.484Z,89.15
2019-02-09T04:51:47.446Z,89.32
2019-02-09T04:52:47.441Z,88.80
2019-02-09T04:53:47.437Z,88.64
2019-02-09T04:54:47.415Z,88.53
2019-02-09T04:55:47.438Z,88.29
2019-02-09T04:56:47.402Z,87.66
2019-02-09T04:57:47.382Z,87.15
2019-02-09T04:58:47.395Z,86.74
2019-02-09T04:59:47.374Z,86.74
2019-02-09T05:00:47.347Z,86.43
2019-02-09T05:01:47.365Z,86.74
2019-02-09T05:02:47.331Z,86.94
2019-02-09T05:03:47.312Z,87.05
2019-02-09T05:04:47.306Z,86.63
2019-02-09T05:05:47.290Z,86.53
2019-02-09T05:06:47.296Z,87.05
2019-02-09T05:07:47.274Z,87.15
2019-02-09T05:08:47.259Z,87.15
2019-02-09T05:09:47.252Z,86.84
2019-02-09T05:10:47.239Z,86.53
2019-02-09T05:11:47.246Z,86.94
2019-02-09T05:12:47.268Z,86.60
2019-02-09T05:13:47.213Z,86.70
2019-02-09T05:14:47.194Z,86.49
2019-02-09T05:15:47.231Z,86.80
2019-02-09T05:16:47.183Z,86.49
2019-02-09T05:17:47.175Z,86.39
2019-02-09T05:18:47.192Z,86.49
2019-02-09T05:19:47.168Z,86.49
2019-02-09T05:20:47.136Z,86.60
2019-02-09T05:21:47.171Z,87.01
2019-02-09T05:22:47.132Z,87.01
2019-02-09T05:23:47.107Z,86.90
2019-02-09T05:24:47.095Z,87.01
2019-02-09T05:25:47.109Z,87.01
2019-02-09T05:26:47.078Z,87.17
2019-02-09T05:27:47.051Z,86.24
2019-02-09T05:28:47.057Z,86.80
2019-02-09T05:29:47.029Z,86.55
2019-02-09T05:30:47.022Z,86.55
2019-02-09T05:31:47.015Z,86.45
2019-02-09T05:32:47.016Z,85.94
2019-02-09T05:33:46.997Z,85.67
2019-02-09T05:34:46.983Z,85.87
2019-02-09T05:35:46.963Z,85.57
2019-02-09T05:36:46.963Z,85.57
2019-02-09T05:37:46.957Z,85.36
2019-02-09T05:38:46.936Z,85.67
2019-02-09T05:39:46.972Z,85.67
2019-02-09T05:40:46.907Z,85.77
2019-02-09T05:41:46.922Z,85.87
2019-02-09T05:42:46.899Z,85.67
2019-02-09T05:43:46.902Z,85.67
2019-02-09T05:44:46.887Z,84.84
2019-02-09T05:45:46.859Z,85.46
2019-02-09T05:46:46.843Z,85.36
2019-02-09T05:47:46.975Z,85.57
2019-02-09T05:48:46.837Z,84.74
2019-02-09T05:49:46.820Z,84.78
2019-02-09T05:50:46.808Z,85.15
2019-02-09T05:51:46.796Z,83.81
2019-02-09T05:52:46.822Z,84.36
2019-02-09T05:53:46.799Z,83.81
2019-02-09T05:54:46.777Z,83.64
2019-02-09T05:55:46.792Z,83.81
2019-02-09T05:56:46.748Z,83.71
2019-02-09T05:57:46.747Z,83.19
2019-02-09T05:58:46.714Z,83.23
2019-02-09T05:59:46.749Z,82.82
2019-02-09T06:00:46.703Z,82.98
2019-02-09T06:01:46.687Z,82.78
2019-02-09T06:02:46.681Z,82.16
2019-02-09T06:03:46.671Z,82.06
2019-02-09T06:04:46.680Z,82.30
2019-02-09T06:05:46.647Z,82.26
2019-02-09T06:06:46.640Z,82.06
2019-02-09T06:07:46.665Z,81.99
2019-02-09T06:08:46.606Z,81.99
2019-02-09T06:09:46.621Z,82.20
2019-02-09T06:10:46.602Z,82.10
2019-02-09T06:11:46.604Z,81.85
2019-02-09T06:12:46.572Z,82.16
2019-02-09T06:13:46.571Z,81.89
2019-02-09T06:14:46.563Z,81.99
2019-02-09T06:15:46.549Z,82.30
2019-02-09T06:16:46.529Z,82.20
2019-02-09T06:17:46.526Z,82.20
2019-02-09T06:18:46.510Z,82.20
2019-02-09T06:19:46.523Z,82.20
2019-02-09T06:20:46.475Z,82.40
2019-02-09T06:21:46.523Z,81.68
2019-02-09T06:22:46.462Z,81.89
2019-02-09T06:23:46.448Z,81.99
2019-02-09T06:24:46.461Z,82.51
2019-02-09T06:25:46.488Z,81.89
2019-02-09T06:26:46.428Z,82.71
2019-02-09T06:27:46.400Z,81.79
2019-02-09T06:28:46.409Z,82.30
2019-02-09T06:29:46.401Z,81.85
2019-02-09T06:30:46.407Z,82.16
2019-02-09T06:31:46.414Z,81.99
2019-02-09T06:32:46.348Z,81.79
2019-02-09T06:33:46.342Z,81.89
2019-02-09T06:34:46.333Z,81.79
2019-02-09T06:35:46.387Z,82.30
2019-02-09T06:36:46.334Z,81.58
2019-02-09T06:37:46.307Z,81.68
2019-02-09T06:38:46.305Z,80.76
2019-02-09T06:39:46.289Z,81.48
2019-02-09T06:40:46.265Z,81.37
2019-02-09T06:41:46.282Z,81.68
2019-02-09T06:42:46.277Z,82.10
2019-02-09T06:43:46.243Z,82.10
2019-02-09T06:44:46.261Z,81.68
2019-02-09T06:45:46.219Z,81.58
2019-02-09T06:46:46.202Z,81.99
2019-02-09T06:47:46.223Z,82.24
2019-02-09T06:48:46.179Z,82.20
2019-02-09T06:49:46.176Z,81.89
2019-02-09T06:50:46.152Z,82.30
2019-02-09T06:51:46.157Z,81.99
2019-02-09T06:52:46.144Z,81.79
2019-02-09T06:53:46.112Z,82.24
2019-02-09T06:54:46.157Z,82.24
2019-02-09T06:55:46.106Z,82.03
2019-02-09T06:56:46.091Z,81.93
2019-02-09T06:57:46.099Z,81.82
2019-02-09T06:58:46.075Z,81.82
2019-02-09T06:59:46.050Z,81.93
2019-02-09T07:00:46.051Z,82.14
2019-02-09T07:01:48.797Z,81.93
2019-02-09T07:02:46.024Z,81.51
2019-02-09T07:03:46.060Z,81.82
2019-02-09T07:04:46.048Z,82.03
2019-02-09T07:05:45.988Z,81.93
2019-02-09T07:06:45.996Z,82.14
2019-02-09T07:07:46.030Z,82.14
2019-02-09T07:08:45.976Z,81.99
2019-02-09T07:09:45.967Z,82.24
2019-02-09T07:10:45.929Z,82.34
2019-02-09T07:11:45.926Z,81.82
2019-02-09T07:12:45.959Z,82.10
2019-02-09T07:13:45.917Z,82.45
2019-02-09T07:14:45.894Z,81.72
2019-02-09T07:15:45.898Z,82.24
2019-02-09T07:16:45.864Z,81.82
2019-02-09T07:17:45.861Z,82.03
2019-02-09T07:18:45.857Z,83.06
2019-02-09T07:19:45.855Z,82.96
2019-02-09T07:20:45.835Z,82.55
2019-02-09T07:21:45.823Z,82.96
2019-02-09T07:22:45.805Z,82.96
2019-02-09T07:23:45.798Z,83.48
2019-02-09T07:24:45.793Z,83.27
2019-02-09T07:25:45.766Z,82.86
2019-02-09T07:26:45.770Z,83.06
2019-02-09T07:27:45.785Z,83.17
2019-02-09T07:28:45.770Z,83.06
2019-02-09T07:29:45.732Z,82.75
2019-02-09T07:30:45.744Z,82.86
2019-02-09T07:31:45.715Z,83.17
2019-02-09T07:32:45.698Z,82.96
2019-02-09T07:33:45.714Z,82.75
2019-02-09T07:34:45.674Z,82.96
2019-02-09T07:35:45.660Z,82.96
2019-02-09T07:36:45.648Z,82.14
2019-02-09T07:37:45.647Z,82.10
2019-02-09T07:38:45.639Z,82.10
2019-02-09T07:39:45.645Z,82.10
2019-02-09T07:40:45.614Z,81.68
2019-02-09T07:41:45.647Z,81.48
2019-02-09T07:42:45.596Z,81.96
2019-02-09T07:43:45.571Z,81.34
2019-02-09T07:44:45.564Z,81.44
2019-02-09T07:45:45.553Z,80.47
2019-02-09T07:46:45.587Z,79.68
2019-02-09T07:47:45.553Z,78.27
2019-02-09T07:48:45.527Z,75.08
2019-02-09T07:49:45.504Z,72.96
2019-02-09T07:50:45.522Z,71.80
2019-02-09T07:51:45.494Z,70.09
2019-02-09T07:52:45.491Z,69.65
2019-02-09T07:53:45.471Z,69.31
2019-02-09T07:54:45.463Z,67.97
2019-02-09T07:55:45.455Z,67.57
2019-02-09T07:56:45.461Z,67.97
2019-02-09T07:57:45.431Z,68.25
2019-02-09T07:58:45.413Z,67.97
2019-02-09T07:59:45.437Z,67.23
2019-02-09T08:00:45.511Z,66.99
2019-02-09T08:01:45.404Z,67.10
2019-02-09T08:02:45.375Z,66.38
2019-02-09T08:03:45.354Z,66.14
2019-02-09T08:04:45.356Z,64.78
2019-02-09T08:05:45.338Z,64.78
2019-02-09T08:06:45.329Z,64.24
2019-02-09T08:07:45.326Z,62.99
2019-02-09T08:08:45.301Z,62.04
2019-02-09T08:09:45.284Z,61.30
2019-02-09T08:10:45.284Z,60.22
2019-02-09T08:11:45.276Z,57.95
2019-02-09T08:12:45.276Z,60.39
2019-02-09T08:13:45.251Z,59.74
2019-02-09T08:14:45.239Z,60.82
2019-02-09T08:15:45.222Z,63.22
2019-02-09T08:16:45.215Z,63.48
2019-02-09T08:17:45.214Z,63.95
2019-02-09T08:18:45.204Z,64.70
2019-02-09T08:19:45.185Z,65.24
2019-02-09T08:20:45.167Z,65.34
2019-02-09T08:21:45.153Z,66.60
2019-02-09T08:22:45.157Z,66.60
2019-02-09T08:23:45.157Z,65.83
2019-02-09T08:24:45.132Z,62.84
2019-02-09T08:25:45.121Z,61.94
2019-02-09T08:26:45.098Z,60.58
2019-02-09T08:27:45.092Z,58.69
2019-02-09T08:28:45.080Z,57.72
2019-02-09T08:29:45.079Z,56.68
2019-02-09T08:30:45.063Z,55.43
2019-02-09T08:31:45.050Z,55.53
2019-02-09T08:32:45.042Z,55.43
2019-02-09T08:33:45.032Z,56.01
2019-02-09T08:34:45.024Z,55.51
2019-02-09T08:35:45.006Z,55.51
2019-02-09T08:36:45.020Z,54.26
2019-02-09T08:37:44.983Z,55.73
2019-02-09T08:38:45.013Z,55.35
2019-02-09T08:39:44.966Z,57.52
2019-02-09T08:40:45.005Z,57.09
2019-02-09T08:41:44.943Z,58.78
2019-02-09T08:42:44.958Z,60.33
2019-02-09T08:43:44.920Z,61.41
2019-02-09T08:44:44.938Z,62.77
2019-02-09T08:45:44.905Z,64.03
2019-02-09T08:46:44.899Z,64.77
2019-02-09T08:47:44.902Z,64.06
2019-02-09T08:48:44.858Z,63.68
2019-02-09T08:49:44.875Z,65.01
2019-02-09T08:50:44.846Z,65.11
2019-02-09T08:51:44.827Z,64.62
2019-02-09T08:52:44.831Z,65.55
2019-02-09T08:53:44.801Z,65.55
2019-02-09T08:54:44.797Z,66.16
2019-02-09T08:55:44.784Z,65.01
2019-02-09T08:56:44.803Z,64.60
2019-02-09T08:57:44.766Z,64.80
2019-02-09T08:58:44.758Z,65.49
2019-02-09T08:59:44.745Z,63.98
2019-02-09T09:00:44.725Z,64.26
2019-02-09T09:01:44.714Z,64.03
2019-02-09T09:02:44.713Z,63.72
2019-02-09T09:03:44.719Z,63.62
2019-02-09T09:04:44.687Z,63.48
2019-02-09T09:05:46.182Z,64.20
2019-02-09T09:06:44.657Z,62.98
2019-02-09T09:07:44.661Z,62.87
2019-02-09T09:08:44.644Z,64.20
2019-02-09T09:09:44.638Z,63.48
2019-02-09T09:10:44.614Z,63.48
2019-02-09T09:11:44.621Z,63.72
2019-02-09T09:12:44.596Z,65.05
2019-02-09T09:13:44.589Z,63.82
2019-02-09T09:14:44.580Z,64.23
2019-02-09T09:15:44.569Z,64.23
2019-02-09T09:16:44.583Z,64.67
2019-02-09T09:17:44.565Z,64.43
2019-02-09T09:18:44.528Z,63.75
2019-02-09T09:19:44.527Z,64.57
2019-02-09T09:20:44.527Z,65.42
2019-02-09T09:21:44.496Z,65.83
2019-02-09T09:22:44.495Z,65.72
2019-02-09T09:23:44.479Z,65.52
2019-02-09T09:24:44.466Z,66.20
2019-02-09T09:25:44.455Z,65.39
2019-02-09T09:26:44.465Z,64.16
2019-02-09T09:27:44.435Z,64.67
2019-02-09T09:28:44.429Z,65.52
2019-02-09T09:29:44.423Z,65.83
2019-02-09T09:30:44.410Z,65.75
2019-02-09T09:31:44.388Z,66.88
2019-02-09T09:32:44.385Z,65.96
2019-02-09T09:33:44.365Z,65.96
2019-02-09T09:34:44.372Z,66.88
2019-02-09T09:35:44.349Z,66.88
2019-02-09T09:36:44.339Z,65.75
2019-02-09T09:37:44.340Z,66.88
2019-02-09T09:38:44.324Z,67.05
2019-02-09T09:39:44.300Z,65.34
2019-02-09T09:40:44.311Z,65.75
2019-02-09T09:41:44.288Z,65.96
2019-02-09T09:42:44.266Z,66.27
2019-02-09T09:43:44.301Z,66.16
2019-02-09T09:44:44.248Z,65.86
2019-02-09T09:45:44.255Z,66.88
2019-02-09T09:46:44.236Z,67.05
2019-02-09T09:47:44.229Z,65.72
2019-02-09T09:48:44.204Z,65.93
2019-02-09T09:49:44.201Z,66.00
2019-02-09T09:50:44.189Z,65.62
2019-02-09T09:51:44.174Z,65.31
2019-02-09T09:52:44.162Z,65.83
2019-02-09T09:53:44.148Z,65.52
2019-02-09T09:54:44.144Z,65.62
2019-02-09T09:55:44.139Z,65.52
2019-02-09T09:56:44.119Z,65.59
2019-02-09T09:57:44.102Z,66.20
2019-02-09T09:58:44.101Z,65.49
2019-02-09T09:59:44.091Z,66.10
2019-02-09T10:00:44.092Z,64.26
2019-02-09T10:01:44.069Z,64.36
2019-02-09T10:02:44.080Z,64.33
2019-02-09T10:03:44.038Z,63.72
2019-02-09T10:04:44.030Z,64.64
2019-02-09T10:05:44.038Z,63.69
2019-02-09T10:06:44.017Z,65.22
2019-02-09T10:07:44.031Z,63.48
2019-02-09T10:08:43.990Z,63.35
2019-02-09T10:09:43.981Z,63.56
2019-02-09T10:10:43.959Z,63.39
2019-02-09T10:11:43.963Z,63.28
2019-02-09T10:12:43.974Z,62.87
2019-02-09T10:13:43.942Z,62.84
2019-02-09T10:14:43.916Z,62.43
2019-02-09T10:15:43.922Z,63.15
2019-02-09T10:16:43.904Z,63.76
2019-02-09T10:17:43.886Z,63.22
2019-02-09T10:18:43.889Z,63.12
2019-02-09T10:19:43.866Z,61.90
2019-02-09T10:20:43.866Z,62.40
2019-02-09T10:21:43.844Z,61.76
2019-02-09T10:22:43.839Z,61.76
2019-02-09T10:23:45.346Z,62.88
2019-02-09T10:24:43.814Z,62.45
2019-02-09T10:25:43.815Z,60.78
2019-02-09T10:26:43.783Z,61.07
2019-02-09T10:27:43.775Z,61.27
2019-02-09T10:28:43.770Z,59.94
2019-02-09T10:29:43.782Z,59.33
2019-02-09T10:30:43.754Z,60.02
2019-02-09T10:31:43.732Z,60.70
2019-02-09T10:32:44.700Z,59.28
2019-02-09T10:33:43.713Z,57.44
2019-02-09T10:34:43.704Z,57.34
2019-02-09T10:35:43.705Z,58.84
2019-02-09T10:36:43.681Z,56.98
2019-02-09T10:37:43.673Z,57.79
2019-02-09T10:38:43.652Z,56.77
2019-02-09T10:39:43.646Z,57.08
2019-02-09T10:40:43.663Z,56.88
2019-02-09T10:41:43.623Z,57.77
2019-02-09T10:42:43.622Z,55.83
2019-02-09T10:43:43.603Z,58.10
2019-02-09T10:44:43.592Z,57.90
2019-02-09T10:45:43.590Z,55.76
2019-02-09T10:46:43.971Z,56.75
2019-02-09T10:47:43.561Z,56.04
2019-02-09T10:48:43.551Z,56.47
2019-02-09T10:49:43.553Z,55.86
2019-02-09T10:50:43.525Z,55.79
2019-02-09T10:51:43.515Z,58.23
2019-02-09T10:52:43.505Z,56.73
2019-02-09T10:53:43.490Z,56.73
2019-02-09T10:54:43.499Z,56.73
2019-02-09T10:55:43.472Z,57.44
2019-02-09T10:56:43.464Z,55.91
2019-02-09T10:57:44.035Z,56.63
2019-02-09T10:58:43.436Z,57.26
2019-02-09T10:59:43.426Z,56.76
2019-02-09T11:00:43.421Z,56.68
2019-02-09T11:01:43.412Z,57.29
2019-02-09T11:02:43.409Z,56.40
2019-02-09T11:03:43.384Z,57.01
2019-02-09T11:04:43.370Z,56.71
2019-02-09T11:05:43.364Z,57.21
2019-02-09T11:06:43.355Z,57.93
2019-02-09T11:07:43.343Z,57.52
2019-02-09T11:08:43.340Z,58.44
2019-02-09T11:09:43.329Z,57.73
2019-02-09T11:10:43.311Z,58.64
2019-02-09T11:11:43.294Z,57.62
2019-02-09T11:12:43.292Z,57.52
2019-02-09T11:13:43.323Z,58.03
2019-02-09T11:14:43.275Z,57.93
2019-02-09T11:15:43.251Z,58.06
2019-02-09T11:16:43.239Z,58.16
2019-02-09T11:17:43.229Z,59.49
2019-02-09T11:18:43.240Z,58.26
2019-02-09T11:19:43.207Z,57.57
2019-02-09T11:20:43.201Z,57.68
2019-02-09T11:21:43.192Z,59.52
2019-02-09T11:22:43.173Z,58.93
2019-02-09T11:23:43.184Z,59.44
2019-02-09T11:24:43.153Z,59.75
2019-02-09T11:25:43.139Z,59.34
2019-02-09T11:26:43.139Z,59.98
2019-02-09T11:27:43.125Z,59.67
2019-02-09T11:28:43.114Z,59.88
2019-02-09T11:29:43.123Z,59.57
2019-02-09T11:30:43.090Z,61.21
2019-02-09T11:31:43.094Z,61.10
2019-02-09T11:32:43.069Z,59.78
2019-02-09T11:33:43.057Z,59.57
2019-02-09T11:34:43.053Z,59.80
2019-02-09T11:35:43.031Z,60.01
2019-02-09T11:36:43.019Z,59.80
2019-02-09T11:37:43.012Z,60.21
2019-02-09T11:38:43.108Z,60.14
2019-02-09T11:39:43.013Z,60.35
2019-02-09T11:40:42.984Z,60.35
2019-02-09T11:41:42.989Z,62.05
2019-02-09T11:42:42.950Z,60.11
2019-02-09T11:43:42.948Z,59.91
2019-02-09T11:44:42.932Z,60.31
2019-02-09T11:45:42.932Z,60.83
2019-02-09T11:46:42.925Z,60.31
2019-02-09T11:47:42.902Z,60.21
2019-02-09T11:48:42.892Z,60.52
2019-02-09T11:49:42.873Z,60.62
2019-02-09T11:50:42.889Z,59.80
2019-02-09T11:51:42.863Z,59.78
2019-02-09T11:52:42.853Z,59.50
2019-02-09T11:53:42.854Z,59.91
2019-02-09T11:54:42.822Z,59.88
2019-02-09T11:55:42.816Z,60.01
2019-02-09T11:56:43.108Z,59.50
2019-02-09T11:57:42.792Z,60.49
2019-02-09T11:58:42.800Z,59.70
2019-02-09T11:59:42.774Z,59.98
2019-02-09T12:00:42.763Z,59.78
2019-02-09T12:01:43.045Z,59.78
2019-02-09T12:02:42.736Z,58.73
2019-02-09T12:03:42.735Z,59.03
2019-02-09T12:04:42.716Z,59.03
2019-02-09T12:05:42.711Z,59.64
2019-02-09T12:06:42.701Z,59.85
2019-02-09T12:07:42.681Z,58.80
2019-02-09T12:08:42.681Z,57.88
2019-02-09T12:09:42.658Z,60.44
2019-02-09T12:10:42.654Z,58.39
2019-02-09T12:11:42.654Z,59.31
2019-02-09T12:12:42.634Z,58.06
2019-02-09T12:13:42.620Z,58.57
2019-02-09T12:14:42.601Z,58.67
2019-02-09T12:15:42.593Z,58.06
2019-02-09T12:16:42.585Z,58.44
2019-02-09T12:17:42.578Z,58.37
2019-02-09T12:18:42.568Z,58.47
2019-02-09T12:19:42.553Z,59.77
2019-02-09T12:20:42.542Z,57.52
2019-02-09T12:21:42.528Z,57.32
2019-02-09T12:22:42.533Z,58.23
2019-02-09T12:23:42.515Z,58.23
2019-02-09T12:24:42.497Z,58.03
2019-02-09T12:25:42.487Z,57.09
2019-02-09T12:26:42.475Z,57.32
2019-02-09T12:27:42.482Z,57.12
2019-02-09T12:28:42.452Z,57.21
2019-02-09T12:29:42.436Z,56.91
2019-02-09T12:30:42.432Z,56.73
2019-02-09T12:31:42.438Z,56.94
2019-02-09T12:32:42.412Z,57.14
2019-02-09T12:33:42.452Z,57.45
2019-02-09T12:34:42.396Z,57.04
2019-02-09T12:35:43.791Z,56.96
2019-02-09T12:36:42.367Z,57.98
2019-02-09T12:37:42.367Z,57.88
2019-02-09T12:38:42.384Z,57.98
2019-02-09T12:39:42.334Z,57.98
2019-02-09T12:40:42.321Z,57.68
2019-02-09T12:41:42.305Z,57.98
2019-02-09T12:42:42.330Z,57.88
2019-02-09T12:43:42.290Z,57.70
2019-02-09T12:44:42.299Z,58.52
2019-02-09T12:45:42.269Z,58.09
2019-02-09T12:46:42.251Z,58.29
2019-02-09T12:47:42.245Z,58.09
2019-02-09T12:48:42.235Z,57.98
2019-02-09T12:49:42.243Z,57.70
2019-02-09T12:50:42.224Z,57.60
2019-02-09T12:51:42.201Z,57.60
2019-02-09T12:52:42.186Z,57.70